createdAt,value
2023-11-27T09:27:45.134Z,0.80
2023-11-27T09:30:46.722Z,0.75
2023-11-27T09:33:48.283Z,1.08
2023-11-27T09:36:59.090Z,0.90
2023-11-27T09:40:06.464Z,0.70
2023-11-27T09:43:08.552Z,0.77
2023-11-27T09:46:19.073Z,0.80
2023-11-27T09:52:33.285Z,0.82
2023-11-27T09:55:36.373Z,0.60
2023-11-27T09:58:43.611Z,0.60
2023-11-27T10:01:45.522Z,0.80
2023-11-27T10:04:47.735Z,0.73
2023-11-27T10:08:12.810Z,0.73
2023-11-27T10:11:14.587Z,0.70
2023-11-27T10:14:35.562Z,0.52
2023-11-27T10:17:40.731Z,0.70
2023-11-27T10:20:42.376Z,0.80
2023-11-27T10:23:45.154Z,0.77
2023-11-27T10:26:47.311Z,0.98
2023-11-27T10:29:48.911Z,0.63
2023-11-27T10:32:50.495Z,0.77
2023-11-27T10:35:54.522Z,0.75
2023-11-27T10:39:17.048Z,0.60
2023-11-27T10:42:19.376Z,0.60
2023-11-27T10:45:22.315Z,0.90
2023-11-27T10:48:33.606Z,0.63
2023-11-27T10:51:45.983Z,0.75
2023-11-27T10:54:50.042Z,0.85
2023-11-27T10:57:51.730Z,0.82
2023-11-27T11:00:58.216Z,0.82
2023-11-27T11:04:10.758Z,0.90
2023-11-27T11:07:20.832Z,1.10
2023-11-27T11:10:27.671Z,1.10
2023-11-27T11:13:31.224Z,1.00
2023-11-27T11:16:41.234Z,1.00
2023-11-27T11:19:55.823Z,1.00
2023-11-27T11:23:23.173Z,1.25
2023-11-27T11:26:41.012Z,1.08
2023-11-27T11:29:47.699Z,1.10
2023-11-27T11:32:50.716Z,1.08
2023-11-27T11:35:55.216Z,0.80
2023-11-27T11:38:57.189Z,0.88
2023-11-27T11:42:03.765Z,0.65
2023-11-27T11:45:26.641Z,0.60
2023-11-27T11:48:38.144Z,0.57
2023-11-27T11:52:16.685Z,0.73
2023-11-27T11:55:26.327Z,0.60
2023-11-27T11:58:29.651Z,0.60
2023-11-27T12:01:34.153Z,0.95
2023-11-27T12:04:39.738Z,1.00
2023-11-27T12:07:41.358Z,0.85
2023-11-27T12:10:42.981Z,1.30
2023-11-27T12:13:44.821Z,0.90
2023-11-27T12:16:48.517Z,1.00
2023-11-27T12:19:51.443Z,0.90
2023-11-27T12:22:53.192Z,0.80
2023-11-27T12:25:54.802Z,1.05
2023-11-27T12:28:56.486Z,0.98
2023-11-27T12:31:58.121Z,0.90
2023-11-27T12:35:00.175Z,0.70
2023-11-27T12:38:04.781Z,0.75
2023-11-27T12:41:10.212Z,1.00
2023-11-27T12:44:19.795Z,0.90
2023-11-27T12:47:22.522Z,1.00
2023-11-27T12:50:31.597Z,0.90
2023-11-27T12:53:34.720Z,0.80
2023-11-27T12:56:36.848Z,0.90
2023-11-27T12:59:41.135Z,0.90
2023-11-27T13:02:45.908Z,0.85
2023-11-27T13:05:54.304Z,0.70
2023-11-27T13:08:56.264Z,1.10
2023-11-27T13:11:58.050Z,0.60
2023-11-27T13:14:59.701Z,0.68
2023-11-27T13:18:03.646Z,1.10
2023-11-27T13:21:09.934Z,0.65
2023-11-27T13:24:15.037Z,0.57
2023-11-27T13:27:17.859Z,1.00
2023-11-27T13:30:28.821Z,0.80
2023-11-27T13:33:30.419Z,1.00
2023-11-27T13:36:32.093Z,0.70
2023-11-27T13:39:37.848Z,0.75
2023-11-27T13:42:39.519Z,0.70
2023-11-27T13:45:48.678Z,0.70
2023-11-27T13:48:50.265Z,0.68
2023-11-27T13:52:00.654Z,0.60
2023-11-27T13:55:11.144Z,0.60
2023-11-27T13:58:14.073Z,0.60
2023-11-27T14:01:20.317Z,0.63
2023-11-27T14:04:28.728Z,0.68
2023-11-27T14:07:35.130Z,0.70
2023-11-27T14:10:55.684Z,0.75
2023-11-27T14:17:37.500Z,0.60
2023-11-27T14:20:42.142Z,0.68
2023-11-27T14:23:55.786Z,0.70
2023-11-27T14:27:26.203Z,0.80
2023-11-27T14:33:29.593Z,0.82
2023-11-27T14:36:31.278Z,0.60
2023-11-27T14:39:34.251Z,0.70
2023-11-27T14:42:35.764Z,0.60
2023-11-27T14:45:43.636Z,0.65
2023-11-27T14:48:45.731Z,0.60
2023-11-27T14:51:50.736Z,0.60
2023-11-27T14:54:52.855Z,0.70
2023-11-27T14:57:54.482Z,0.60
2023-11-27T15:01:02.384Z,0.90
2023-11-27T15:04:06.078Z,1.05
2023-11-27T15:07:10.268Z,1.02
2023-11-27T15:10:15.384Z,1.10
2023-11-27T15:13:18.043Z,0.80
2023-11-27T15:16:21.810Z,1.20
2023-11-27T15:19:26.002Z,0.90
2023-11-27T15:22:28.031Z,1.15
2023-11-27T15:25:29.745Z,0.98
2023-11-27T15:28:31.316Z,0.77
2023-11-27T15:31:36.343Z,0.90
2023-11-27T15:34:37.905Z,0.88
2023-11-27T15:37:39.549Z,0.80
2023-11-27T15:40:41.095Z,0.80
2023-11-27T15:43:43.270Z,0.82
2023-11-27T15:46:45.715Z,0.80
2023-11-27T15:49:47.355Z,0.80
2023-11-27T15:52:51.051Z,0.88
2023-11-27T15:55:52.780Z,0.82
2023-11-27T15:58:55.591Z,0.85
2023-11-27T16:01:57.231Z,0.73
2023-11-27T16:04:58.832Z,0.90
2023-11-27T16:08:00.960Z,0.70
2023-11-27T16:11:05.199Z,0.90
2023-11-27T16:14:14.377Z,0.70
2023-11-27T16:17:16.170Z,0.80
2023-11-27T16:20:21.835Z,0.80
2023-11-27T16:23:27.686Z,1.02
2023-11-27T16:26:29.205Z,0.80
2023-11-27T16:29:30.731Z,0.77
2023-11-27T16:32:33.493Z,0.77
2023-11-27T16:35:36.612Z,0.70
2023-11-27T16:38:38.571Z,0.70
2023-11-27T16:41:41.450Z,0.70
2023-11-27T16:44:42.965Z,0.65
2023-11-27T16:47:48.504Z,0.80
2023-11-27T16:50:51.213Z,0.80
2023-11-27T16:53:53.714Z,0.80
2023-11-27T16:56:55.823Z,0.60
2023-11-27T16:59:57.533Z,0.80
2023-11-27T17:03:04.714Z,0.95
2023-11-27T17:06:07.009Z,0.73
2023-11-27T17:09:08.851Z,0.70
2023-11-27T17:12:11.405Z,0.77
2023-11-27T17:15:16.131Z,0.63
2023-11-27T17:18:17.819Z,0.70
2023-11-27T17:21:19.411Z,0.68
2023-11-27T17:24:21.028Z,0.80
2023-11-27T17:27:22.513Z,0.80
2023-11-27T17:30:24.157Z,0.70
2023-11-27T17:33:25.741Z,0.95
2023-11-27T17:36:28.416Z,0.80
2023-11-27T17:39:30.940Z,0.80
2023-11-27T17:42:32.482Z,0.75
2023-11-27T17:45:33.981Z,0.75
2023-11-27T17:48:35.480Z,0.70
2023-11-27T17:51:38.336Z,0.85
2023-11-27T17:54:40.063Z,0.77
2023-11-27T17:57:48.741Z,0.82
2023-11-27T18:00:53.641Z,0.63
2023-11-27T18:03:55.214Z,0.82
2023-11-27T18:06:56.792Z,0.70
2023-11-27T18:09:58.299Z,0.90
2023-11-27T18:13:01.880Z,0.60
2023-11-27T18:16:04.375Z,1.10
2023-11-27T18:19:07.092Z,0.75
2023-11-27T18:22:09.163Z,1.88
2023-11-27T18:25:12.932Z,3.20
2023-11-27T18:28:14.664Z,1.60
2023-11-27T18:31:16.546Z,1.67
2023-11-27T18:34:18.112Z,1.40
2023-11-27T18:37:21.649Z,1.40
2023-11-27T18:40:24.956Z,1.50
2023-11-27T18:43:27.933Z,1.25
2023-11-27T18:46:30.241Z,1.33
2023-11-27T18:49:33.641Z,1.60
2023-11-27T18:52:37.057Z,1.40
2023-11-27T18:55:38.747Z,1.60
2023-11-27T18:58:40.348Z,1.40
2023-11-27T19:01:41.964Z,1.48
2023-11-27T19:04:43.629Z,1.40
2023-11-27T19:07:47.541Z,1.90
2023-11-27T19:10:49.462Z,1.25
2023-11-27T19:13:51.148Z,1.38
2023-11-27T19:16:53.711Z,1.23
2023-11-27T19:19:55.377Z,1.20
2023-11-27T19:22:56.915Z,1.20
2023-11-27T19:25:59.729Z,1.10
2023-11-27T19:29:01.657Z,1.63
2023-11-27T19:32:03.405Z,1.23
2023-11-27T19:35:06.937Z,1.50
2023-11-27T19:38:08.576Z,1.15
2023-11-27T19:41:11.295Z,1.15
2023-11-27T19:44:13.040Z,1.33
2023-11-27T19:47:15.660Z,1.35
2023-11-27T19:50:17.635Z,1.10
2023-11-27T19:53:19.855Z,1.40
2023-11-27T19:56:21.457Z,1.10
2023-11-27T19:59:23.869Z,1.30
2023-11-27T20:02:26.181Z,1.27
2023-11-27T20:05:28.858Z,1.20
2023-11-27T20:08:30.361Z,1.45
2023-11-27T20:11:34.022Z,1.13
2023-11-27T20:14:35.532Z,1.50
2023-11-27T20:17:38.406Z,1.00
2023-11-27T20:20:44.334Z,1.02
2023-11-27T20:23:45.991Z,1.08
2023-11-27T20:26:49.736Z,1.52
2023-11-27T20:29:51.478Z,1.00
2023-11-27T20:32:58.709Z,1.20
2023-11-27T20:36:00.246Z,0.98
2023-11-27T20:39:01.975Z,0.90
2023-11-27T20:42:03.780Z,1.10
2023-11-27T20:45:06.170Z,1.10
